Time;durP1;ratioP1;P1;durP2;ratioP2;P2;SDS_P1;SDS_P2;PMS_P1;PMS_P2;Temp;Humidity;BMP_temperature;BMP_pressure;BME280_temperature;BME280_humidity;BME280_pressure;Samples;Min_cycle;Max_cycle;Signal;HPM_P1;HPM_P2
2023/10/14 00:01:13;;;;;;;35.88;15.02;;;;;;;-144.73;100.00;54582.16;4949807;29;20120;-74
2023/10/14 00:03:45;;;;;;;30.40;15.30;;;;;;;-144.73;100.00;54621.16;4936407;28;20034;-74
2023/10/14 00:06:14;;;;;;;30.27;13.23;;;;;;;-144.73;100.00;54592.44;4934849;29;20050;-73
2023/10/14 00:08:48;;;;;;;28.48;14.00;;;;;;;-144.73;100.00;54555.47;4936637;28;20019;-74
2023/10/14 00:11:17;;;;;;;21.20;5.57;;;;;;;-144.73;100.00;54580.13;4936517;28;20028;-71
2023/10/14 00:13:49;;;;;;;11.18;2.97;;;;;;;-144.73;100.00;54588.31;4952684;28;20046;-73
2023/10/14 00:16:25;;;;;;;7.07;2.60;;;;;;;-144.73;100.00;54592.44;4928266;28;20032;-71
2023/10/14 00:18:51;;;;;;;8.88;2.60;;;;;;;-144.73;100.00;54559.59;4936542;29;20023;-72
2023/10/14 00:21:17;;;;;;;6.75;1.88;;;;;;;-144.73;100.00;54619.13;4961371;28;20081;-71
2023/10/14 00:23:43;;;;;;;5.80;1.52;;;;;;;-144.73;100.00;54612.97;4936228;28;20434;-73
2023/10/14 00:26:14;;;;;;;4.00;1.63;;;;;;;-144.73;100.00;54592.44;4949660;28;20043;-72
2023/10/14 00:28:41;;;;;;;2.78;1.70;;;;;;;-144.73;100.00;54584.22;4952429;28;20098;-71
2023/10/14 00:31:10;;;;;;;5.38;1.30;;;;;;;-144.73;100.00;54580.13;5029925;28;20595;-72
2023/10/14 00:33:37;;;;;;;8.30;1.92;;;;;;;-144.73;100.00;54625.28;5005069;28;20027;-73
2023/10/14 00:36:03;;;;;;;5.55;1.38;;;;;;;-144.73;100.00;54606.78;4952195;28;20041;-72
2023/10/14 00:38:34;;;;;;;5.55;1.23;;;;;;;-144.73;100.00;54571.91;4951963;28;20041;-72
2023/10/14 00:40:59;;;;;;;4.32;1.27;;;;;;;-144.73;100.00;54588.31;4952416;28;20093;-72
2023/10/14 00:43:25;;;;;;;7.60;1.20;;;;;;;-144.73;100.00;54592.44;4935971;28;20023;-73
2023/10/14 00:45:52;;;;;;;11.50;2.55;;;;;;;-144.73;100.00;54588.31;4934931;29;20035;-72
2023/10/14 00:48:19;;;;;;;3.97;1.23;;;;;;;-144.73;100.00;54588.31;4935836;28;20027;-73
2023/10/14 00:50:45;;;;;;;6.38;2.00;;;;;;;-144.73;100.00;54596.53;4935341;28;20035;-72
2023/10/14 00:53:15;;;;;;;10.00;1.58;;;;;;;-144.73;100.00;54600.63;4952469;28;20070;-73
2023/10/14 00:58:12;;;;;;;10.85;2.17;;;;;;;-144.73;100.00;54596.53;4953011;28;20389;-75
2023/10/14 01:00:56;;;;;;;8.02;1.60;;;;;;;-144.73;100.00;54588.31;4934938;29;20032;-73
2023/10/14 01:03:32;;;;;;;10.98;1.98;;;;;;;-144.73;100.00;54629.38;4951548;28;20031;-73
2023/10/14 01:05:58;;;;;;;17.50;2.20;;;;;;;-144.73;100.00;54588.31;5017855;28;20035;-75
2023/10/14 01:08:25;;;;;;;8.55;1.73;;;;;;;-144.73;100.00;54600.63;4935291;28;20019;-73
2023/10/14 01:10:53;;;;;;;17.30;3.15;;;;;;;-144.73;100.00;54604.75;4935203;28;20032;-73
2023/10/14 01:13:24;;;;;;;17.08;2.60;;;;;;;-144.73;100.00;54594.47;4952358;28;20031;-74
2023/10/14 01:16:12;;;;;;;8.18;2.28;;;;;;;-144.73;100.00;54596.53;4935347;28;20498;-73
2023/10/14 01:18:38;;;;;;;15.80;2.17;;;;;;;-144.73;100.00;54571.91;4951735;28;20122;-73
2023/10/14 01:21:03;;;;;;;11.98;2.13;;;;;;;-144.73;100.00;54588.31;4934724;29;20065;-76
2023/10/14 01:23:29;;;;;;;15.55;2.47;;;;;;;-144.73;100.00;54608.84;4935392;28;20128;-75
2023/10/14 01:25:57;;;;;;;14.50;2.38;;;;;;;-144.73;100.00;54578.06;4951636;28;20039;-75
2023/10/14 01:28:29;;;;;;;14.32;2.72;;;;;;;-144.73;100.00;54588.31;4936073;28;20035;-75
2023/10/14 01:31:23;;;;;;;19.92;2.70;;;;;;;-144.73;100.00;54588.31;4934812;29;20417;-73
2023/10/14 01:33:48;;;;;;;19.40;3.28;;;;;;;-144.73;100.00;54645.78;4953140;28;20039;-72
2023/10/14 01:36:15;;;;;;;13.15;2.80;;;;;;;-144.73;100.00;54633.47;4950533;28;20119;-73
2023/10/14 01:38:41;;;;;;;20.45;2.45;;;;;;;-144.73;100.00;54604.75;4934804;29;20039;-72
2023/10/14 01:41:06;;;;;;;13.50;2.28;;;;;;;-144.73;100.00;54588.31;4950333;28;20166;-72
2023/10/14 01:43:32;;;;;;;17.52;2.83;;;;;;;-144.73;100.00;54633.47;4952291;29;20028;-73
2023/10/14 01:48:25;;;;;;;16.80;2.53;;;;;;;-144.73;100.00;54604.75;4951983;28;20066;-77
2023/10/14 01:50:54;;;;;;;16.48;2.83;;;;;;;-144.73;100.00;54602.69;4950867;28;20161;-75
2023/10/14 01:53:27;;;;;;;22.27;2.60;;;;;;;-144.73;100.00;54596.53;4935275;29;20031;-75
2023/10/14 01:55:55;;;;;;;21.33;2.92;;;;;;;-144.73;100.00;54584.22;4935019;28;20042;-73
2023/10/14 01:58:22;;;;;;;22.05;3.03;;;;;;;-144.73;100.00;54596.53;4950941;28;20035;-73
2023/10/14 02:00:58;;;;;;;25.55;3.78;;;;;;;-144.73;100.00;54612.97;4950529;28;20051;-73
2023/10/14 02:03:24;;;;;;;25.20;3.25;;;;;;;-144.73;100.00;54596.53;4951144;28;20055;-72
2023/10/14 02:05:53;;;;;;;26.80;2.80;;;;;;;-144.73;100.00;54617.06;4951947;28;20039;-72
2023/10/14 02:08:23;;;;;;;20.15;2.40;;;;;;;-144.73;100.00;54629.38;4952261;29;20027;-71
2023/10/14 02:10:50;;;;;;;30.80;2.78;;;;;;;-144.73;100.00;54649.91;4996607;28;20043;-71
2023/10/14 02:13:21;;;;;;;27.45;3.30;;;;;;;-144.73;100.00;54584.22;5015033;28;20025;-73
2023/10/14 02:15:47;;;;;;;15.80;2.50;;;;;;;-144.73;100.00;54567.81;4953200;28;20074;-73
2023/10/14 02:18:21;;;;;;;18.35;2.78;;;;;;;-144.73;100.00;54612.97;4937242;29;20480;-71
2023/10/14 02:20:57;;;;;;;22.73;2.80;;;;;;;-144.73;100.00;54662.22;4953678;28;20031;-71
2023/10/14 02:23:30;;;;;;;19.40;2.70;;;;;;;-144.73;100.00;54608.84;4955443;28;20037;-70
2023/10/14 02:26:00;;;;;;;18.33;2.55;;;;;;;-144.73;100.00;54625.28;4937261;28;20050;-73
2023/10/14 02:28:40;;;;;;;10.52;2.00;;;;;;;-144.73;100.00;54641.69;4938308;28;20024;-71
2023/10/14 02:31:17;;;;;;;26.08;2.70;;;;;;;-144.73;100.00;54596.53;4934326;28;20106;-72
2023/10/14 02:33:45;;;;;;;15.13;2.45;;;;;;;-144.73;100.00;54635.53;4918573;28;20024;-73
2023/10/14 02:36:20;;;;;;;12.20;1.75;;;;;;;-144.73;100.00;54559.59;4943372;28;20035;-73
2023/10/14 02:38:56;;;;;;;13.77;2.22;;;;;;;-144.73;100.00;54612.97;4955107;28;20073;-73
2023/10/14 02:41:26;;;;;;;15.30;2.40;;;;;;;-144.73;100.00;54612.97;4937510;28;20062;-72
2023/10/14 02:44:01;;;;;;;16.80;2.65;;;;;;;-144.73;100.00;54592.44;4937416;28;20055;-73
2023/10/14 02:46:27;;;;;;;14.13;2.65;;;;;;;-144.73;100.00;54588.31;4954147;28;20039;-73
2023/10/14 02:48:53;;;;;;;18.60;2.75;;;;;;;-144.73;100.00;54629.38;4955235;29;20026;-73
2023/10/14 02:51:29;;;;;;;26.80;3.25;;;;;;;-144.73;100.00;54571.91;4937106;28;20089;-73
2023/10/14 02:53:56;;;;;;;13.05;1.92;;;;;;;-144.73;100.00;54612.97;4937810;28;20054;-73
2023/10/14 02:56:33;;;;;;;14.68;1.60;;;;;;;-144.73;100.00;54602.69;4945092;29;20505;-73
2023/10/14 02:58:59;;;;;;;17.88;2.75;;;;;;;-144.73;100.00;54617.06;4948244;29;20482;-73
2023/10/14 03:01:31;;;;;;;10.32;2.22;;;;;;;-144.73;100.00;54600.63;4953178;28;20127;-73
2023/10/14 03:03:57;;;;;;;14.18;1.83;;;;;;;-144.73;100.00;54586.28;5031272;28;20082;-73
2023/10/14 03:06:23;;;;;;;8.18;1.17;;;;;;;-144.73;100.00;54576.00;4959610;28;20071;-73
2023/10/14 03:08:57;;;;;;;12.98;1.70;;;;;;;-144.73;100.00;54569.84;4935138;28;20059;-73
2023/10/14 03:11:25;;;;;;;11.73;1.92;;;;;;;-144.73;100.00;54584.22;4918692;28;20043;-74
2023/10/14 03:13:52;;;;;;;18.50;2.40;;;;;;;-144.73;100.00;54621.16;4918256;28;20089;-73
2023/10/14 03:16:18;;;;;;;12.85;2.13;;;;;;;-144.73;100.00;54604.75;4918031;28;20036;-73
2023/10/14 03:18:44;;;;;;;11.82;2.13;;;;;;;-144.73;100.00;54617.06;5016883;28;20052;-73
2023/10/14 03:21:21;;;;;;;18.85;3.05;;;;;;;-144.73;100.00;54588.31;5033996;28;20137;-73
2023/10/14 03:23:47;;;;;;;16.67;2.38;;;;;;;-144.73;100.00;54621.16;5018025;28;20018;-74
2023/10/14 03:26:13;;;;;;;14.82;2.13;;;;;;;-144.73;100.00;54578.06;5017592;28;20080;-74
2023/10/14 03:28:46;;;;;;;12.18;2.15;;;;;;;-144.73;100.00;54608.84;4993949;28;20024;-77
2023/10/14 03:31:16;;;;;;;23.13;2.42;;;;;;;-144.73;100.00;54592.44;4933825;28;20047;-75
2023/10/14 03:33:45;;;;;;;12.98;2.35;;;;;;;-144.73;100.00;54612.97;4918658;28;20039;-76
2023/10/14 03:36:22;;;;;;;20.08;2.38;;;;;;;-144.73;100.00;54600.63;4918006;28;20059;-75
2023/10/14 03:38:55;;;;;;;14.50;2.53;;;;;;;-144.73;100.00;54596.53;4918511;29;20024;-77
2023/10/14 03:41:29;;;;;;;13.05;2.85;;;;;;;-144.73;100.00;54612.97;4936868;29;20029;-78
2023/10/14 03:46:32;;;;;;;18.80;2.00;;;;;;;-144.73;100.00;54621.16;4951305;28;20382;-80
2023/10/14 03:49:06;;;;;;;19.23;3.05;;;;;;;-144.73;100.00;54604.75;4943067;28;20027;-80
2023/10/14 03:51:32;;;;;;;13.23;2.40;;;;;;;-144.73;100.00;54608.84;4941495;28;20058;-79
2023/10/14 03:54:06;;;;;;;17.75;4.05;;;;;;;-144.73;100.00;54576.00;4958902;29;20102;-79
2023/10/14 03:56:34;;;;;;;20.20;2.63;;;;;;;-144.73;100.00;54619.13;4956802;28;20105;-79
2023/10/14 03:59:01;;;;;;;31.80;3.80;;;;;;;-144.73;100.00;54580.13;4938754;28;20074;-77
2023/10/14 04:01:43;;;;;;;37.92;3.40;;;;;;;-144.73;100.00;54590.38;4981521;28;20046;-78
2023/10/14 04:04:19;;;;;;;23.73;2.75;;;;;;;-144.73;100.00;54592.44;4938037;28;20103;-77
2023/10/14 04:06:55;;;;;;;20.63;3.08;;;;;;;-144.73;100.00;54615.00;4938382;28;20027;-77
2023/10/14 04:09:24;;;;;;;20.13;3.25;;;;;;;-144.73;100.00;54645.78;4953155;28;20027;-77
2023/10/14 04:11:54;;;;;;;21.20;2.88;;;;;;;-144.73;100.00;54608.84;4933088;28;20114;-77
2023/10/14 04:14:22;;;;;;;19.20;4.25;;;;;;;-144.73;100.00;54584.22;4953167;28;20095;-75
2023/10/14 04:16:50;;;;;;;29.13;2.83;;;;;;;-144.73;100.00;54608.84;4937180;28;20019;-76
2023/10/14 04:19:27;;;;;;;15.93;2.55;;;;;;;-144.73;100.00;54629.38;4945900;28;20028;-77
2023/10/14 04:22:03;;;;;;;27.88;3.08;;;;;;;-144.73;100.00;54600.63;4930481;28;20041;-76
2023/10/14 04:24:45;;;;;;;19.17;3.17;;;;;;;-144.73;100.00;54629.38;4938746;29;20074;-76
2023/10/14 04:27:17;;;;;;;24.40;2.90;;;;;;;-144.73;100.00;54627.31;4950126;29;20027;-77
2023/10/14 04:29:52;;;;;;;24.33;2.47;;;;;;;-144.73;100.00;54645.78;4930477;28;20111;-75
2023/10/14 04:32:27;;;;;;;31.38;3.17;;;;;;;-144.73;100.00;54617.06;4935825;28;20420;-76
2023/10/14 04:34:54;;;;;;;19.27;3.08;;;;;;;-144.73;100.00;54633.47;4941825;28;20066;-76
2023/10/14 04:37:27;;;;;;;20.95;3.70;;;;;;;-144.73;100.00;54615.00;4953035;28;20027;-76
2023/10/14 04:39:58;;;;;;;27.75;3.53;;;;;;;-144.73;100.00;54623.22;4947058;28;20039;-76
2023/10/14 04:42:44;;;;;;;26.40;3.83;;;;;;;-144.73;100.00;54571.91;4931936;28;20083;-75
2023/10/14 04:45:13;;;;;;;17.23;3.42;;;;;;;-144.73;100.00;54658.13;4988441;28;20035;-75
2023/10/14 04:47:38;;;;;;;18.25;2.65;;;;;;;-144.73;100.00;54596.53;4934579;28;20114;-75
2023/10/14 04:50:14;;;;;;;19.88;3.40;;;;;;;-144.73;100.00;54584.22;4936142;28;20195;-75
2023/10/14 04:52:41;;;;;;;27.13;3.90;;;;;;;-144.73;100.00;54604.75;4936162;28;20027;-75
2023/10/14 04:55:28;;;;;;;22.13;3.30;;;;;;;-144.73;100.00;54625.28;4952078;28;20031;-75
2023/10/14 04:58:23;;;;;;;19.38;3.10;;;;;;;-144.73;100.00;54658.13;4929138;29;20031;-75
2023/10/14 05:00:47;;;;;;;21.15;3.45;;;;;;;-144.73;100.00;54649.91;4947587;28;20028;-74
2023/10/14 05:03:14;;;;;;;24.10;4.03;;;;;;;-144.73;100.00;54625.28;4953455;28;20031;-77
2023/10/14 05:05:43;;;;;;;20.02;3.88;;;;;;;-144.73;100.00;54571.91;4932594;28;20090;-75
2023/10/14 05:08:15;;;;;;;13.95;2.58;;;;;;;-144.73;100.00;54612.97;4943942;28;20034;-75
2023/10/14 05:10:44;;;;;;;15.55;3.55;;;;;;;-144.73;100.00;54621.16;4922089;28;20049;-73
2023/10/14 05:13:13;;;;;;;19.27;3.60;;;;;;;-144.73;100.00;54629.38;4940343;28;20027;-75
2023/10/14 05:15:43;;;;;;;18.15;2.88;;;;;;;-144.73;100.00;54592.44;4934024;28;20040;-75
2023/10/14 05:18:16;;;;;;;24.45;2.85;;;;;;;-144.73;100.00;54612.97;4936387;28;20035;-74
2023/10/14 05:23:24;;;;;;;21.60;3.08;;;;;;;-144.73;100.00;54627.31;4953437;28;20367;-74
2023/10/14 05:25:56;;;;;;;30.02;3.47;;;;;;;-144.73;100.00;54612.97;4951893;28;20042;-74
2023/10/14 05:28:26;;;;;;;25.00;3.30;;;;;;;-144.73;100.00;54633.47;4952437;29;20139;-74
2023/10/14 05:30:55;;;;;;;16.58;3.20;;;;;;;-144.73;100.00;54608.84;4951498;29;20043;-74
2023/10/14 05:33:21;;;;;;;30.77;3.30;;;;;;;-144.73;100.00;54645.78;4952881;28;20023;-74
2023/10/14 05:35:48;;;;;;;21.50;2.92;;;;;;;-144.73;100.00;54625.28;4949733;28;20034;-75
2023/10/14 05:38:17;;;;;;;26.75;3.13;;;;;;;-144.73;100.00;54617.06;4934686;28;20035;-75
2023/10/14 05:40:43;;;;;;;25.25;3.20;;;;;;;-144.73;100.00;54621.16;4935538;28;20042;-72
2023/10/14 05:43:08;;;;;;;23.90;3.70;;;;;;;-144.73;100.00;54604.75;4952867;28;20019;-73
2023/10/14 05:45:35;;;;;;;18.67;2.70;;;;;;;-144.73;100.00;54615.00;4927405;29;20028;-73
2023/10/14 05:48:04;;;;;;;25.88;3.88;;;;;;;-144.73;100.00;54623.22;4926545;29;20368;-73
2023/10/14 05:50:31;;;;;;;23.73;3.13;;;;;;;-144.73;100.00;54633.47;4950148;29;20044;-73
2023/10/14 05:52:59;;;;;;;17.92;3.22;;;;;;;-144.73;100.00;54617.06;4954462;29;20110;-73
2023/10/14 05:55:25;;;;;;;25.77;4.10;;;;;;;-144.73;100.00;54596.53;4938417;28;20039;-73
2023/10/14 05:57:51;;;;;;;15.82;3.28;;;;;;;-144.73;100.00;54608.84;4939871;28;20027;-74
2023/10/14 06:00:23;;;;;;;18.73;2.92;;;;;;;-144.73;100.00;54625.28;4940171;28;20457;-73
2023/10/14 06:02:52;;;;;;;20.55;2.97;;;;;;;-144.73;100.00;54596.53;4941196;28;20024;-73
2023/10/14 06:05:29;;;;;;;20.75;3.35;;;;;;;-144.73;100.00;54596.53;4980653;28;20497;-72
2023/10/14 06:08:05;;;;;;;23.92;3.58;;;;;;;-144.73;100.00;54633.47;4939359;29;20078;-73
2023/10/14 06:10:36;;;;;;;15.82;3.45;;;;;;;-144.73;100.00;54617.06;4961049;28;20042;-73
2023/10/14 06:13:08;;;;;;;21.95;2.83;;;;;;;-144.73;100.00;54555.47;4955155;28;20057;-73
2023/10/14 06:15:39;;;;;;;23.45;3.85;;;;;;;-144.73;100.00;54596.53;4938250;28;20062;-73
2023/10/14 06:18:05;;;;;;;24.70;4.03;;;;;;;-144.73;100.00;54635.53;4956147;28;20377;-74
2023/10/14 06:20:37;;;;;;;20.08;2.92;;;;;;;-144.73;100.00;54590.38;4953721;28;20050;-73
2023/10/14 06:23:03;;;;;;;40.50;3.45;;;;;;;-144.73;100.00;54615.00;4938210;28;20031;-74
2023/10/14 06:25:32;;;;;;;20.08;3.28;;;;;;;-144.73;100.00;54555.47;4953909;28;20032;-74
2023/10/14 06:27:58;;;;;;;23.35;3.00;;;;;;;-144.73;100.00;54608.84;4938531;29;20146;-74
2023/10/14 06:30:23;;;;;;;27.40;3.47;;;;;;;-144.73;100.00;54654.00;4937952;29;20038;-73
2023/10/14 06:33:03;;;;;;;33.95;3.85;;;;;;;-144.73;100.00;54557.53;4937814;28;20027;-73
2023/10/14 06:35:33;;;;;;;21.42;3.67;;;;;;;-144.73;100.00;54600.63;4953501;29;20134;-73
2023/10/14 06:38:00;;;;;;;32.30;5.55;;;;;;;-144.73;100.00;54621.16;4964301;28;20027;-74
2023/10/14 06:40:35;;;;;;;26.85;3.65;;;;;;;-144.73;100.00;54596.53;4935801;28;20044;-73
2023/10/14 06:43:06;;;;;;;28.60;4.03;;;;;;;-144.73;100.00;54617.06;4954229;28;20555;-73
2023/10/14 06:45:32;;;;;;;22.90;4.85;;;;;;;-144.73;100.00;54596.53;5021754;28;20036;-73
2023/10/14 06:47:58;;;;;;;22.70;3.83;;;;;;;-144.73;100.00;54612.97;4934265;29;20031;-73
2023/10/14 06:50:24;;;;;;;20.70;3.25;;;;;;;-144.73;100.00;54596.53;4921812;28;20046;-72
2023/10/14 06:52:58;;;;;;;25.98;3.78;;;;;;;-144.73;100.00;54643.75;4953656;28;20035;-73
2023/10/14 06:55:27;;;;;;;26.42;3.95;;;;;;;-144.73;100.00;54578.06;4937336;28;20039;-73
2023/10/14 06:57:56;;;;;;;29.35;3.90;;;;;;;-144.73;100.00;54615.00;4937873;29;20058;-73
2023/10/14 07:00:31;;;;;;;24.55;2.92;;;;;;;-144.73;100.00;54629.38;4937547;28;20039;-73
2023/10/14 07:02:59;;;;;;;31.35;4.72;;;;;;;-144.73;100.00;54592.44;4937293;28;20027;-73
2023/10/14 07:05:27;;;;;;;18.42;3.20;;;;;;;-144.73;100.00;54629.38;4937287;28;20063;-73
2023/10/14 07:07:52;;;;;;;41.25;5.57;;;;;;;-144.73;100.00;54625.28;4938361;28;20031;-73
2023/10/14 07:10:17;;;;;;;28.95;4.10;;;;;;;-144.73;100.00;54610.91;4937332;28;20042;-73
2023/10/14 07:12:43;;;;;;;32.85;4.95;;;;;;;-144.73;100.00;54654.00;4953951;29;20039;-74
2023/10/14 07:15:15;;;;;;;30.13;5.25;;;;;;;-144.73;100.00;54612.97;4953243;28;20035;-74
2023/10/14 07:17:42;;;;;;;18.52;2.92;;;;;;;-144.73;100.00;54621.16;4938413;29;20031;-74
2023/10/14 07:20:10;;;;;;;27.23;3.38;;;;;;;-144.73;100.00;54627.31;4954816;28;20070;-74
2023/10/14 07:22:37;;;;;;;27.23;3.20;;;;;;;-144.73;100.00;54658.13;4955074;28;20023;-74
2023/10/14 07:25:05;;;;;;;21.38;2.65;;;;;;;-144.73;100.00;54617.06;4938235;28;20035;-74
2023/10/14 07:27:34;;;;;;;30.25;4.68;;;;;;;-144.73;100.00;54617.06;4954862;28;20019;-74
2023/10/14 07:29:59;;;;;;;36.20;4.80;;;;;;;-144.73;100.00;54592.44;4952944;28;20054;-74
2023/10/14 07:32:30;;;;;;;30.77;3.67;;;;;;;-144.73;100.00;54592.44;5028386;28;20023;-74
2023/10/14 07:34:56;;;;;;;23.90;3.92;;;;;;;-144.73;100.00;54623.22;4947163;28;20105;-71
2023/10/14 07:37:24;;;;;;;22.83;3.25;;;;;;;-144.73;100.00;54569.84;4935565;28;20469;-71
2023/10/14 07:39:52;;;;;;;18.08;3.35;;;;;;;-144.73;100.00;54576.00;4950177;28;20031;-71
2023/10/14 07:42:18;;;;;;;34.97;4.53;;;;;;;-144.73;100.00;54604.75;4961285;28;20042;-72
2023/10/14 07:44:43;;;;;;;26.00;3.83;;;;;;;-144.73;100.00;54590.38;4946458;28;20043;-71
2023/10/14 07:47:10;;;;;;;33.83;3.97;;;;;;;-144.73;100.00;54567.81;4950523;29;20521;-71
2023/10/14 07:49:38;;;;;;;24.10;3.30;;;;;;;-144.73;100.00;54612.97;4920308;29;20042;-71
2023/10/14 07:52:08;;;;;;;25.35;3.95;;;;;;;-144.73;100.00;54621.16;4938144;28;20038;-71
2023/10/14 07:54:37;;;;;;;23.52;3.38;;;;;;;-144.73;100.00;54629.38;4948691;28;20031;-71
2023/10/14 07:57:02;;;;;;;34.65;4.00;;;;;;;-144.73;100.00;54555.47;4927299;28;20066;-71
2023/10/14 07:59:34;;;;;;;24.40;2.95;;;;;;;-144.73;100.00;54584.22;4931241;28;20059;-70
2023/10/14 08:02:00;;;;;;;;;;;;;;;-144.73;100.00;54600.63;4948469;28;20019;-70
2023/10/14 08:04:28;;;;;;;24.13;3.13;;;;;;;-144.73;100.00;54592.44;4932781;28;19963;-70
2023/10/14 08:06:53;;;;;;;23.02;3.67;;;;;;;-144.73;100.00;54590.38;4946224;28;20046;-70
2023/10/14 08:09:25;;;;;;;27.02;4.82;;;;;;;-144.73;100.00;54563.69;4922409;28;20031;-70
2023/10/14 08:11:51;;;;;;;17.85;3.42;;;;;;;-144.73;100.00;54596.53;4948349;28;20031;-71
2023/10/14 08:14:17;;;;;;;27.67;4.38;;;;;;;-144.73;100.00;54592.44;4942127;28;20100;-70
2023/10/14 08:16:47;;;;;;;29.95;4.65;;;;;;;-144.73;100.00;54617.06;4946659;28;20026;-72
2023/10/14 08:19:12;;;;;;;26.02;4.82;;;;;;;-144.73;100.00;54637.59;4946586;29;20047;-71
2023/10/14 08:21:41;;;;;;;26.35;4.07;;;;;;;-144.73;100.00;54576.00;4950533;28;20039;-71
2023/10/14 08:24:07;;;;;;;21.08;3.30;;;;;;;-144.73;100.00;54584.22;4925826;28;20054;-71
2023/10/14 08:26:36;;;;;;;33.40;4.07;;;;;;;-144.73;100.00;54629.38;5021841;28;20054;-71
2023/10/14 08:29:02;;;;;;;20.13;3.35;;;;;;;-144.73;100.00;54563.69;4931038;28;20031;-71
2023/10/14 08:31:29;;;;;;;21.17;3.67;;;;;;;-144.73;100.00;54553.44;4925784;29;20044;-71
2023/10/14 08:33:55;;;;;;;23.85;3.50;;;;;;;-144.73;100.00;54596.53;4931031;28;20023;-71
2023/10/14 08:36:20;;;;;;;23.98;4.65;;;;;;;-144.73;100.00;54604.75;4948831;28;20032;-71
2023/10/14 08:38:47;;;;;;;21.90;4.47;;;;;;;-144.73;100.00;54580.13;4947544;28;20023;-71
2023/10/14 08:41:15;;;;;;;20.83;3.30;;;;;;;-144.73;100.00;54576.00;4945939;28;20028;-71
2023/10/14 08:43:49;;;;;;;21.15;3.35;;;;;;;-144.73;100.00;54625.28;4945804;28;20037;-71
2023/10/14 08:46:17;;;;;;;22.75;4.10;;;;;;;-144.73;100.00;54604.75;4959326;28;20036;-72
2023/10/14 08:48:43;;;;;;;21.23;3.00;;;;;;;-144.73;100.00;54596.53;4940051;28;20035;-72
2023/10/14 08:51:09;;;;;;;28.17;4.03;;;;;;;-144.73;100.00;54571.91;4923261;28;20047;-72
2023/10/14 08:53:40;;;;;;;24.75;3.80;;;;;;;-144.73;100.00;54576.00;4946441;28;20035;-70
2023/10/14 08:56:07;;;;;;;28.80;3.20;;;;;;;-144.73;100.00;54584.22;4928780;28;20031;-70
2023/10/14 08:58:36;;;;;;;14.50;2.83;;;;;;;-144.73;100.00;54584.22;4928000;28;20035;-70
2023/10/14 09:01:02;;;;;;;30.23;3.97;;;;;;;-144.73;100.00;54612.97;4946678;28;20038;-70
2023/10/14 09:03:30;;;;;;;23.10;4.18;;;;;;;-144.73;100.00;54576.00;4943727;28;20035;-70
2023/10/14 09:05:56;;;;;;;24.17;4.35;;;;;;;-144.73;100.00;54625.28;4928524;29;20035;-71
2023/10/14 09:08:21;;;;;;;29.05;3.65;;;;;;;-144.73;100.00;54596.53;4947474;28;20022;-71
2023/10/14 09:10:49;;;;;;;29.27;4.65;;;;;;;-144.73;100.00;54641.69;4942564;28;20023;-70
2023/10/14 09:13:22;;;;;;;24.42;3.80;;;;;;;-144.73;100.00;54608.84;4947369;28;20034;-70
2023/10/14 09:15:49;;;;;;;19.10;3.63;;;;;;;-144.73;100.00;54547.28;4943491;28;20532;-70
2023/10/14 09:18:19;;;;;;;13.63;3.25;;;;;;;-144.73;100.00;54598.59;4925799;28;20051;-71
2023/10/14 09:20:51;;;;;;;22.48;4.35;;;;;;;-144.73;100.00;54617.06;5020316;28;20043;-70
2023/10/14 09:23:19;;;;;;;27.70;4.65;;;;;;;-144.73;100.00;54600.63;4948351;28;20023;-71
2023/10/14 09:25:52;;;;;;;24.13;4.18;;;;;;;-144.73;100.00;54608.84;4951594;28;20043;-72
2023/10/14 09:28:22;;;;;;;24.92;3.30;;;;;;;-144.73;100.00;54612.97;4926212;28;20031;-72
2023/10/14 09:30:52;;;;;;;25.90;4.07;;;;;;;-144.73;100.00;54571.91;4930509;28;20038;-71
2023/10/14 09:33:28;;;;;;;28.30;4.20;;;;;;;-144.73;100.00;54596.53;4944805;28;20023;-72
2023/10/14 09:35:59;;;;;;;23.83;4.15;;;;;;;-144.73;100.00;54592.44;4922196;28;20043;-70
2023/10/14 09:38:27;;;;;;;20.38;4.18;;;;;;;-144.73;100.00;54592.44;4930616;29;20019;-70
2023/10/14 09:40:57;;;;;;;24.95;3.85;;;;;;;-144.73;100.00;54608.84;4964477;28;20037;-71
2023/10/14 09:43:24;;;;;;;24.85;3.40;;;;;;;-144.73;100.00;54588.31;4943197;28;20027;-71
2023/10/14 09:45:56;;;;;;;19.13;4.43;;;;;;;-144.73;100.00;54588.31;4940641;29;20118;-71
2023/10/14 09:48:31;;;;;;;28.23;3.08;;;;;;;-144.73;100.00;54604.75;4942137;28;20089;-71
2023/10/14 09:51:02;;;;;;;28.60;4.50;;;;;;;-144.73;100.00;54555.47;4945280;28;20062;-71
2023/10/14 09:53:35;;;;;;;22.47;4.03;;;;;;;-144.73;100.00;54584.22;4942108;28;20035;-71
2023/10/14 09:56:05;;;;;;;27.48;3.83;;;;;;;-144.73;100.00;54584.22;4957975;28;20272;-71
2023/10/14 09:58:34;;;;;;;24.60;3.90;;;;;;;-144.73;100.00;54584.22;4937393;28;20053;-71
2023/10/14 10:01:01;;;;;;;26.75;5.45;;;;;;;-144.73;100.00;54592.44;4929569;28;20039;-71
2023/10/14 10:03:30;;;;;;;28.83;4.18;;;;;;;-144.73;100.00;54576.00;4925563;28;20043;-71
2023/10/14 10:06:30;;;;;;;14.77;3.60;;;;;;;-144.73;100.00;54580.13;4931221;28;20116;-71
2023/10/14 10:09:08;;;;;;;21.45;4.00;;;;;;;-144.73;100.00;54543.16;4946003;28;20181;-71
2023/10/14 10:11:36;;;;;;;22.58;3.88;;;;;;;-144.73;100.00;54551.38;4963393;28;20127;-71
2023/10/14 10:14:05;;;;;;;17.98;3.45;;;;;;;-144.73;100.00;54567.81;4927969;28;20031;-71
2023/10/14 10:16:32;;;;;;;10.68;2.42;;;;;;;-144.73;100.00;54588.31;4945421;28;20032;-71
2023/10/14 10:19:00;;;;;;;10.65;2.42;;;;;;;-144.73;100.00;54588.31;4930660;28;20067;-71
2023/10/14 10:21:31;;;;;;;13.75;2.60;;;;;;;-144.73;100.00;54571.91;4950208;28;20083;-70
2023/10/14 10:24:18;;;;;;;11.75;1.67;;;;;;;-144.73;100.00;54588.31;4994637;28;20035;-70
2023/10/14 10:27:10;;;;;;;9.90;2.00;;;;;;;-144.73;100.00;54592.44;4947350;28;20035;-69
2023/10/14 10:29:55;;;;;;;14.18;2.05;;;;;;;-144.73;100.00;54584.22;4958846;28;20096;-70
2023/10/14 10:32:30;;;;;;;10.07;1.38;;;;;;;-144.73;100.00;54600.63;4943230;28;20032;-70
2023/10/14 10:35:04;;;;;;;12.65;1.30;;;;;;;-144.73;100.00;54563.69;4943429;28;20084;-70
2023/10/14 10:37:33;;;;;;;6.40;1.17;;;;;;;-144.73;100.00;54559.59;4990053;28;20025;-69
2023/10/14 10:39:58;;;;;;;6.93;1.55;;;;;;;-144.73;100.00;54559.59;4948424;28;20031;-70
2023/10/14 10:42:25;;;;;;;7.35;1.67;;;;;;;-144.73;100.00;54571.91;4943135;28;20027;-70
2023/10/14 10:44:50;;;;;;;4.95;1.13;;;;;;;-144.73;100.00;54604.75;4948305;28;20066;-70
2023/10/14 10:47:16;;;;;;;7.20;1.42;;;;;;;-144.73;100.00;54584.22;4926125;28;20028;-70
2023/10/14 10:49:59;;;;;;;9.13;1.67;;;;;;;-144.73;100.00;54592.44;4959040;28;20035;-70
2023/10/14 10:52:27;;;;;;;8.60;1.92;;;;;;;-144.73;100.00;54555.47;4957822;28;20023;-70
2023/10/14 10:54:53;;;;;;;4.07;1.15;;;;;;;-144.73;100.00;54604.75;4946980;28;20134;-70
2023/10/14 10:57:19;;;;;;;9.25;2.20;;;;;;;-144.73;100.00;54612.97;4952254;28;20051;-70
2023/10/14 10:59:46;;;;;;;9.68;1.58;;;;;;;-144.73;100.00;54578.06;4933864;28;20120;-70
2023/10/14 11:02:13;;;;;;;7.72;2.03;;;;;;;-144.73;100.00;54588.31;4972295;28;20038;-70
2023/10/14 11:04:39;;;;;;;4.55;1.15;;;;;;;-144.73;100.00;54592.44;4955689;28;20078;-70
2023/10/14 11:07:07;;;;;;;9.52;1.73;;;;;;;-144.73;100.00;54514.44;4940078;28;20058;-70
2023/10/14 11:09:42;;;;;;;6.90;1.58;;;;;;;-144.73;100.00;54617.06;4936224;28;20099;-70
2023/10/14 11:12:11;;;;;;;7.88;1.33;;;;;;;-144.73;100.00;54571.91;4940574;28;20033;-71
2023/10/14 11:14:38;;;;;;;12.93;2.58;;;;;;;-144.73;100.00;54596.53;4947425;28;20027;-70
2023/10/14 11:17:04;;;;;;;6.55;1.63;;;;;;;-144.73;100.00;54600.63;4934174;28;20052;-70
2023/10/14 11:19:32;;;;;;;8.65;2.03;;;;;;;-144.73;100.00;54594.47;4932938;28;20055;-71
2023/10/14 11:21:59;;;;;;;8.40;2.00;;;;;;;-144.73;100.00;54592.44;4936734;28;20077;-71
2023/10/14 11:24:30;;;;;;;8.07;1.67;;;;;;;-144.73;100.00;54598.59;4944510;28;20031;-72